createdAt,value
2023-06-18T00:03:13.575Z,24.41
2023-06-18T00:05:44.899Z,24.40
2023-06-18T00:11:03.729Z,24.38
2023-06-18T00:13:34.405Z,24.37
2023-06-18T00:16:05.334Z,24.36
2023-06-18T00:21:24.522Z,24.33
2023-06-18T00:23:55.440Z,24.32
2023-06-18T00:26:27.171Z,24.30
2023-06-18T00:28:57.888Z,24.28
2023-06-18T00:31:28.635Z,24.27
2023-06-18T00:34:06.081Z,24.26
2023-06-18T00:36:40.244Z,24.25
2023-06-18T00:39:11.416Z,24.25
2023-06-18T00:41:47.520Z,24.25
2023-06-18T00:44:21.649Z,24.23
2023-06-18T00:46:57.453Z,24.23
2023-06-18T00:52:17.207Z,24.22
2023-06-18T00:54:48.893Z,24.26
2023-06-18T00:57:22.565Z,24.26
2023-06-18T00:59:52.845Z,24.26
2023-06-18T01:02:32.978Z,24.26
2023-06-18T01:05:10.352Z,24.26
2023-06-18T01:07:48.245Z,24.26
2023-06-18T01:10:23.003Z,24.26
2023-06-18T01:12:55.412Z,24.24
2023-06-18T01:15:27.923Z,24.25
2023-06-18T01:18:00.247Z,24.24
2023-06-18T01:20:32.230Z,24.22
2023-06-18T01:23:04.031Z,24.21
2023-06-18T01:25:40.725Z,24.19
2023-06-18T01:28:21.752Z,24.18
2023-06-18T01:30:54.744Z,24.18
2023-06-18T01:33:29.958Z,24.16
2023-06-18T01:36:03.190Z,24.15
2023-06-18T01:38:45.899Z,24.17
2023-06-18T01:41:28.877Z,24.15
2023-06-18T01:44:07.661Z,24.17
2023-06-18T01:46:40.353Z,24.17
2023-06-18T01:49:13.106Z,24.16
2023-06-18T01:51:45.079Z,24.15
2023-06-18T01:54:18.726Z,24.15
2023-06-18T01:56:48.130Z,24.15
2023-06-18T01:59:21.586Z,24.13
2023-06-18T02:01:52.546Z,24.12
2023-06-18T02:04:23.526Z,24.12
2023-06-18T02:06:56.756Z,24.12
2023-06-18T02:09:27.597Z,24.12
2023-06-18T02:11:58.397Z,24.12
2023-06-18T02:14:29.398Z,24.10
2023-06-18T02:17:03.807Z,24.07
2023-06-18T02:19:34.733Z,24.07
2023-06-18T02:22:07.101Z,24.05
2023-06-18T02:24:38.126Z,24.05
2023-06-18T02:27:11.551Z,24.03
2023-06-18T02:29:43.479Z,24.01
2023-06-18T02:32:14.414Z,24.01
2023-06-18T02:34:45.152Z,23.99
2023-06-18T02:37:16.018Z,23.97
2023-06-18T02:39:47.768Z,23.98
2023-06-18T02:42:22.115Z,23.97
2023-06-18T02:44:52.852Z,23.95
2023-06-18T02:47:23.548Z,23.93
2023-06-18T02:49:54.920Z,23.91
2023-06-18T02:52:25.618Z,23.90
2023-06-18T02:54:56.694Z,23.89
2023-06-18T02:57:27.426Z,23.88
2023-06-18T02:59:58.349Z,23.83
2023-06-18T03:02:30.155Z,23.86
2023-06-18T03:05:01.931Z,23.86
2023-06-18T03:07:32.835Z,23.85
2023-06-18T03:10:05.843Z,23.84
2023-06-18T03:12:36.849Z,23.84
2023-06-18T03:15:09.470Z,23.83
2023-06-18T03:17:40.212Z,23.83
2023-06-18T03:20:13.076Z,23.85
2023-06-18T03:22:43.961Z,23.81
2023-06-18T03:25:14.870Z,23.85
2023-06-18T03:27:45.676Z,23.85
2023-06-18T03:30:17.391Z,23.84
2023-06-18T03:32:48.929Z,23.84
2023-06-18T03:35:20.570Z,23.83
2023-06-18T03:37:51.733Z,23.82
2023-06-18T03:40:22.980Z,23.81
2023-06-18T03:42:54.132Z,23.79
2023-06-18T03:45:25.276Z,23.79
2023-06-18T03:47:56.382Z,23.79
2023-06-18T03:50:27.476Z,23.79
2023-06-18T03:52:58.627Z,23.78
2023-06-18T03:55:29.346Z,23.78
2023-06-18T03:58:00.177Z,23.78
2023-06-18T04:00:31.071Z,23.79
2023-06-18T04:03:02.122Z,23.79
2023-06-18T04:05:33.472Z,23.76
2023-06-18T04:08:04.392Z,23.78
2023-06-18T04:10:35.169Z,23.78
2023-06-18T04:13:05.898Z,23.78
2023-06-18T04:15:36.920Z,23.77
2023-06-18T04:18:08.074Z,23.76
2023-06-18T04:20:39.646Z,23.75
2023-06-18T04:25:59.530Z,23.74
2023-06-18T04:28:30.362Z,23.74
2023-06-18T04:31:01.018Z,23.73
2023-06-18T04:33:31.750Z,23.73
2023-06-18T04:36:02.423Z,23.73
2023-06-18T04:38:33.500Z,23.73
2023-06-18T04:41:04.230Z,23.73
2023-06-18T04:43:35.175Z,23.69
2023-06-18T04:46:06.071Z,23.72
2023-06-18T04:48:36.889Z,23.72
2023-06-18T04:51:08.026Z,23.72
2023-06-18T04:53:38.777Z,23.73
2023-06-18T04:56:09.767Z,23.73
2023-06-18T04:58:42.768Z,23.73
2023-06-18T05:01:13.821Z,23.72
2023-06-18T05:03:45.236Z,23.74
2023-06-18T05:06:16.160Z,23.75
2023-06-18T05:08:48.104Z,23.75
2023-06-18T05:11:19.446Z,23.75
2023-06-18T05:13:50.467Z,23.76
2023-06-18T05:16:21.285Z,23.75
2023-06-18T05:18:52.029Z,23.77
2023-06-18T05:21:23.258Z,23.78
2023-06-18T05:23:53.932Z,23.79
2023-06-18T05:26:24.688Z,23.81
2023-06-18T05:28:56.580Z,23.78
2023-06-18T05:31:29.213Z,23.82
2023-06-18T05:34:00.015Z,23.82
2023-06-18T05:36:30.781Z,23.82
2023-06-18T05:39:01.767Z,23.83
2023-06-18T05:41:32.929Z,23.84
2023-06-18T05:44:04.372Z,23.84
2023-06-18T05:46:35.356Z,23.85
2023-06-18T05:49:06.507Z,23.85
2023-06-18T05:51:37.401Z,23.86
2023-06-18T05:54:08.759Z,23.87
2023-06-18T05:56:39.591Z,23.87
2023-06-18T05:59:10.435Z,23.87
2023-06-18T06:01:41.676Z,23.89
2023-06-18T06:04:12.766Z,23.90
2023-06-18T06:06:43.841Z,23.91
2023-06-18T06:09:14.646Z,23.93
2023-06-18T06:11:45.722Z,23.94
2023-06-18T06:14:17.021Z,23.96
2023-06-18T06:16:48.317Z,23.98
2023-06-18T06:19:19.199Z,23.99
2023-06-18T06:21:49.933Z,24.00
2023-06-18T06:24:21.515Z,24.03
2023-06-18T06:26:52.645Z,24.04
2023-06-18T06:29:23.370Z,24.04
2023-06-18T06:31:54.541Z,24.03
2023-06-18T06:34:26.308Z,24.04
2023-06-18T06:36:57.546Z,24.03
2023-06-18T06:39:28.427Z,24.04
2023-06-18T06:41:59.462Z,24.06
2023-06-18T06:44:30.307Z,24.08
2023-06-18T06:47:01.318Z,24.11
2023-06-18T06:49:32.266Z,24.12
2023-06-18T06:52:03.127Z,24.13
2023-06-18T06:54:33.948Z,24.14
2023-06-18T06:57:05.408Z,24.15
2023-06-18T06:59:36.448Z,24.15
2023-06-18T07:02:07.867Z,24.16
2023-06-18T07:04:39.101Z,24.14
2023-06-18T07:07:10.078Z,24.16
2023-06-18T07:09:41.158Z,24.14
2023-06-18T07:12:13.274Z,24.18
2023-06-18T07:14:44.088Z,24.19
2023-06-18T07:17:14.973Z,24.19
2023-06-18T07:19:46.058Z,24.22
2023-06-18T07:22:17.003Z,24.23
2023-06-18T07:24:47.916Z,24.24
2023-06-18T07:27:18.837Z,24.24
2023-06-18T07:29:50.088Z,24.23
2023-06-18T07:32:22.012Z,24.23
2023-06-18T07:34:54.220Z,24.23
2023-06-18T07:37:25.572Z,24.23
2023-06-18T07:39:56.764Z,24.22
2023-06-18T07:42:27.607Z,24.22
2023-06-18T07:44:58.632Z,24.22
2023-06-18T07:47:29.750Z,24.23
2023-06-18T07:50:03.771Z,24.20
2023-06-18T07:52:35.963Z,24.24
2023-06-18T07:55:08.582Z,24.23
2023-06-18T07:57:39.764Z,24.24
2023-06-18T08:00:13.089Z,24.24
2023-06-18T08:02:44.378Z,24.24
2023-06-18T08:05:15.370Z,24.24
2023-06-18T08:07:46.432Z,24.19
2023-06-18T08:10:17.344Z,24.23
2023-06-18T08:12:48.524Z,24.22
2023-06-18T08:15:19.972Z,24.24
2023-06-18T08:17:51.239Z,24.24
2023-06-18T08:20:22.627Z,24.25
2023-06-18T08:22:54.142Z,24.26
2023-06-18T08:25:25.397Z,24.28
2023-06-18T08:27:57.727Z,24.31
2023-06-18T08:30:29.894Z,24.33
2023-06-18T08:33:01.985Z,24.36
2023-06-18T08:35:33.122Z,24.39
2023-06-18T08:38:04.574Z,24.40
2023-06-18T08:40:53.694Z,24.43
2023-06-18T08:43:28.060Z,24.45
2023-06-18T08:46:04.592Z,24.48
2023-06-18T08:48:41.781Z,24.50
2023-06-18T08:51:13.888Z,24.52
2023-06-18T08:53:48.382Z,24.55
2023-06-18T08:56:26.246Z,24.56
2023-06-18T08:58:59.344Z,24.58
2023-06-18T09:01:30.892Z,24.62
2023-06-18T09:04:03.327Z,24.64
2023-06-18T09:06:34.904Z,24.66
2023-06-18T09:09:06.285Z,24.64
2023-06-18T09:11:37.868Z,24.68
2023-06-18T09:14:10.923Z,24.69
2023-06-18T09:16:42.571Z,24.71
2023-06-18T09:19:14.446Z,24.72
2023-06-18T09:21:46.001Z,24.73
2023-06-18T09:24:20.158Z,24.73
2023-06-18T09:26:52.772Z,24.74
2023-06-18T09:29:29.702Z,24.76
2023-06-18T09:32:07.295Z,24.77
2023-06-18T09:34:39.381Z,24.78
2023-06-18T09:37:14.880Z,24.81
2023-06-18T09:39:46.468Z,24.82
2023-06-18T09:42:17.943Z,24.84
2023-06-18T09:44:49.863Z,24.86
2023-06-18T09:47:21.047Z,24.89
2023-06-18T09:49:52.824Z,24.91
2023-06-18T09:52:25.800Z,24.92
2023-06-18T09:54:57.049Z,24.95
2023-06-18T09:57:28.275Z,24.97
2023-06-18T10:00:16.405Z,24.99
2023-06-18T10:02:47.672Z,25.00
2023-06-18T10:05:19.821Z,25.02
2023-06-18T10:07:52.183Z,25.03
2023-06-18T10:10:23.379Z,25.03
2023-06-18T10:12:58.262Z,25.07
2023-06-18T10:15:30.697Z,25.09
2023-06-18T10:18:03.576Z,25.09
2023-06-18T10:20:36.312Z,25.11
2023-06-18T10:23:09.042Z,25.12
2023-06-18T10:25:40.133Z,25.14
2023-06-18T10:28:11.569Z,25.15
2023-06-18T10:30:42.976Z,25.17
2023-06-18T10:33:13.981Z,25.19
2023-06-18T10:35:45.934Z,25.21
2023-06-18T10:38:17.415Z,25.23
2023-06-18T10:40:48.487Z,25.24
2023-06-18T10:43:26.228Z,25.26
2023-06-18T10:46:14.579Z,25.27
2023-06-18T10:49:05.778Z,25.27
2023-06-18T10:51:36.664Z,25.29
2023-06-18T10:54:31.045Z,25.31
2023-06-18T10:57:03.828Z,25.30
2023-06-18T10:59:46.026Z,25.29
2023-06-18T11:02:18.052Z,25.29
2023-06-18T11:04:50.974Z,25.29
2023-06-18T11:07:25.229Z,25.32
2023-06-18T11:09:59.248Z,25.34
2023-06-18T11:12:31.913Z,25.35
2023-06-18T11:15:13.369Z,25.35
2023-06-18T11:17:45.537Z,25.36
2023-06-18T11:20:17.204Z,25.37
2023-06-18T11:22:48.678Z,25.39
2023-06-18T11:25:20.402Z,25.40
2023-06-18T11:27:52.190Z,25.41
2023-06-18T11:30:23.366Z,25.41
2023-06-18T11:32:54.231Z,25.42
2023-06-18T11:35:25.461Z,25.44
2023-06-18T11:37:58.112Z,25.46
2023-06-18T11:40:29.258Z,25.46
2023-06-18T11:43:00.230Z,25.46
2023-06-18T11:45:31.485Z,25.46
2023-06-18T11:48:02.574Z,25.44
2023-06-18T11:50:33.766Z,25.43
2023-06-18T11:53:08.253Z,25.42
2023-06-18T11:55:39.248Z,25.42
2023-06-18T11:58:10.342Z,25.42
2023-06-18T12:00:41.343Z,25.41
2023-06-18T12:03:13.560Z,25.39
2023-06-18T12:05:45.875Z,25.42
2023-06-18T12:08:17.617Z,25.43
2023-06-18T12:10:48.606Z,25.43
2023-06-18T12:13:27.387Z,25.43
2023-06-18T12:16:04.699Z,25.42
2023-06-18T12:18:39.762Z,25.42
2023-06-18T12:21:10.747Z,25.42
2023-06-18T12:23:41.896Z,25.43
2023-06-18T12:26:13.048Z,25.43
2023-06-18T12:28:44.530Z,25.41
2023-06-18T12:31:15.358Z,25.40
2023-06-18T12:33:46.798Z,25.40
2023-06-18T12:36:17.837Z,25.40
2023-06-18T12:38:50.014Z,25.41
2023-06-18T12:41:27.080Z,25.42
2023-06-18T12:43:57.862Z,25.42
2023-06-18T12:46:29.812Z,25.41
2023-06-18T12:49:01.361Z,25.41
2023-06-18T12:51:44.744Z,25.42
2023-06-18T12:54:20.088Z,25.43
2023-06-18T12:56:51.806Z,25.43
2023-06-18T12:59:24.976Z,25.44
2023-06-18T13:01:56.751Z,25.44
2023-06-18T13:04:28.630Z,25.45
2023-06-18T13:06:59.660Z,25.45
2023-06-18T13:09:30.431Z,25.47
2023-06-18T13:12:01.464Z,25.47
2023-06-18T13:14:32.575Z,25.49
2023-06-18T13:17:04.777Z,25.47
2023-06-18T13:19:49.787Z,25.49
2023-06-18T13:22:26.770Z,25.49
2023-06-18T13:25:00.046Z,25.51
2023-06-18T13:27:33.814Z,25.51
2023-06-18T13:30:04.952Z,25.50
2023-06-18T13:32:35.979Z,25.51
2023-06-18T13:35:08.061Z,25.51
2023-06-18T13:37:39.015Z,25.52
2023-06-18T13:40:12.076Z,25.52
2023-06-18T13:42:44.304Z,25.54
2023-06-18T13:45:15.320Z,25.55
2023-06-18T13:47:46.187Z,25.56
2023-06-18T13:50:17.826Z,25.58
2023-06-18T13:52:48.733Z,25.59
2023-06-18T13:55:20.104Z,25.60
2023-06-18T13:57:51.160Z,25.61
2023-06-18T14:00:22.709Z,25.62
2023-06-18T14:02:53.841Z,25.63
2023-06-18T14:05:25.341Z,25.64
2023-06-18T14:07:56.589Z,25.67
2023-06-18T14:10:27.789Z,25.67
2023-06-18T14:12:58.775Z,25.69
2023-06-18T14:15:30.033Z,25.71
2023-06-18T14:18:01.484Z,25.74
2023-06-18T14:20:32.607Z,25.75
2023-06-18T14:23:04.304Z,25.76
2023-06-18T14:25:35.396Z,25.78
2023-06-18T14:28:06.581Z,25.80
2023-06-18T14:30:37.634Z,25.80
2023-06-18T14:33:09.055Z,25.83
2023-06-18T14:35:40.116Z,25.84
2023-06-18T14:38:11.165Z,25.85
2023-06-18T14:40:42.120Z,25.87
2023-06-18T14:43:12.947Z,25.89
2023-06-18T14:45:44.559Z,25.88
2023-06-18T14:48:15.652Z,25.91
2023-06-18T14:50:46.895Z,25.93
2023-06-18T14:53:18.819Z,25.93
2023-06-18T14:55:50.059Z,25.95
2023-06-18T14:58:21.471Z,25.97
2023-06-18T15:00:52.505Z,25.97
2023-06-18T15:03:23.715Z,25.99
2023-06-18T15:05:54.706Z,26.00
2023-06-18T15:08:26.262Z,26.02
2023-06-18T15:10:57.157Z,26.04
2023-06-18T15:13:28.813Z,26.05
2023-06-18T15:16:00.185Z,26.06
2023-06-18T15:18:31.017Z,26.06
2023-06-18T15:21:01.901Z,26.07
2023-06-18T15:23:32.883Z,26.08
2023-06-18T15:26:04.073Z,26.09
2023-06-18T15:28:35.355Z,26.11
2023-06-18T15:31:06.482Z,26.12
2023-06-18T15:33:37.372Z,26.13
2023-06-18T15:36:08.835Z,26.13
2023-06-18T15:38:40.041Z,26.15
2023-06-18T15:41:11.284Z,26.15
2023-06-18T15:43:42.136Z,26.17
2023-06-18T15:46:14.541Z,26.18
2023-06-18T15:48:47.624Z,26.20
2023-06-18T15:51:18.757Z,26.20
2023-06-18T15:53:49.736Z,26.22
2023-06-18T15:56:22.255Z,26.23
2023-06-18T15:58:53.208Z,26.22
2023-06-18T16:01:24.313Z,26.24
2023-06-18T16:03:55.397Z,26.24
2023-06-18T16:06:26.342Z,26.24
2023-06-18T16:08:57.091Z,26.25
2023-06-18T16:11:28.294Z,26.25
2023-06-18T16:13:59.989Z,26.25
2023-06-18T16:16:31.803Z,26.26
2023-06-18T16:19:02.800Z,26.25
2023-06-18T16:21:34.677Z,26.28
2023-06-18T16:24:06.630Z,26.29
2023-06-18T16:26:38.870Z,26.30
2023-06-18T16:29:09.776Z,26.30
2023-06-18T16:31:40.782Z,26.31
2023-06-18T16:34:11.706Z,26.32
2023-06-18T16:36:43.605Z,26.32
2023-06-18T16:39:14.634Z,26.33
2023-06-18T16:41:45.680Z,26.33
2023-06-18T16:44:16.793Z,26.33
2023-06-18T16:46:48.859Z,26.35
2023-06-18T16:49:19.671Z,26.36
2023-06-18T16:51:50.548Z,26.35
2023-06-18T16:54:21.521Z,26.36
2023-06-18T16:56:52.285Z,26.37
2023-06-18T16:59:24.931Z,26.37
2023-06-18T17:01:56.050Z,26.38
2023-06-18T17:04:27.259Z,26.39
2023-06-18T17:06:58.502Z,26.40
2023-06-18T17:09:29.336Z,26.41
2023-06-18T17:12:00.170Z,26.41
2023-06-18T17:14:31.269Z,26.41
2023-06-18T17:17:02.201Z,26.42
2023-06-18T17:19:33.344Z,26.42
2023-06-18T17:22:06.662Z,26.43
2023-06-18T17:24:38.147Z,26.43
2023-06-18T17:27:09.750Z,26.45
2023-06-18T17:29:42.812Z,26.44
2023-06-18T17:32:16.093Z,26.45
2023-06-18T17:34:47.020Z,26.45
2023-06-18T17:37:17.943Z,26.46
2023-06-18T17:39:51.521Z,26.46
2023-06-18T17:42:20.937Z,26.46
2023-06-18T17:44:51.933Z,26.44
2023-06-18T17:47:23.769Z,26.44
2023-06-18T17:49:54.719Z,26.40
2023-06-18T17:52:25.700Z,26.36
2023-06-18T17:54:56.887Z,26.31
2023-06-18T17:57:27.799Z,26.28
2023-06-18T17:59:58.706Z,26.26
2023-06-18T18:02:29.512Z,26.22
2023-06-18T18:05:00.655Z,26.22
2023-06-18T18:07:31.470Z,26.24
2023-06-18T18:10:02.334Z,26.26
2023-06-18T18:12:33.454Z,26.26
2023-06-18T18:15:04.733Z,26.28
2023-06-18T18:17:36.188Z,26.28
2023-06-18T18:20:08.689Z,26.28
2023-06-18T18:22:39.599Z,26.27
2023-06-18T18:25:12.971Z,26.27
2023-06-18T18:27:43.924Z,26.28
2023-06-18T18:30:18.166Z,26.28
2023-06-18T18:32:49.456Z,26.26
2023-06-18T18:35:21.074Z,26.27
2023-06-18T18:37:52.113Z,26.27
2023-06-18T18:40:23.195Z,26.26
2023-06-18T18:42:57.225Z,26.24
2023-06-18T18:45:29.023Z,26.24
2023-06-18T18:48:00.243Z,26.24
2023-06-18T18:50:31.312Z,26.22
2023-06-18T18:53:02.284Z,26.22
2023-06-18T18:55:33.286Z,26.21
2023-06-18T18:58:04.204Z,26.20
2023-06-18T19:00:35.191Z,26.19
2023-06-18T19:03:06.666Z,26.17
2023-06-18T19:05:37.899Z,26.17
2023-06-18T19:08:09.852Z,26.18
2023-06-18T19:10:40.829Z,26.18
2023-06-18T19:13:12.378Z,26.18
2023-06-18T19:15:43.605Z,26.17
2023-06-18T19:18:14.465Z,26.14
2023-06-18T19:20:45.485Z,26.15
2023-06-18T19:23:16.750Z,26.16
2023-06-18T19:25:47.866Z,26.18
2023-06-18T19:28:18.873Z,26.21
2023-06-18T19:30:50.271Z,26.22
2023-06-18T19:33:21.744Z,26.19
2023-06-18T19:35:52.890Z,26.18
2023-06-18T19:38:24.300Z,26.18
2023-06-18T19:40:55.777Z,26.20
2023-06-18T19:43:26.996Z,26.21
2023-06-18T19:45:58.227Z,26.21
2023-06-18T19:48:29.078Z,26.22
2023-06-18T19:51:00.584Z,26.23
2023-06-18T19:53:31.844Z,26.23
2023-06-18T19:56:03.912Z,26.25
2023-06-18T19:58:35.212Z,26.25
2023-06-18T20:01:11.205Z,26.25
2023-06-18T20:03:43.860Z,26.26
2023-06-18T20:06:15.150Z,26.27
2023-06-18T20:08:47.338Z,26.25
2023-06-18T20:11:18.999Z,26.29
2023-06-18T20:13:51.145Z,26.27
2023-06-18T20:16:22.473Z,26.29
2023-06-18T20:18:54.068Z,26.28
2023-06-18T20:21:25.624Z,26.28
2023-06-18T20:23:56.674Z,26.28
2023-06-18T20:26:28.122Z,26.28
2023-06-18T20:28:59.174Z,26.28
2023-06-18T20:31:30.228Z,26.28
2023-06-18T20:34:01.480Z,26.28
2023-06-18T20:36:34.289Z,26.29
2023-06-18T20:39:05.921Z,26.30
2023-06-18T20:41:37.005Z,26.29
2023-06-18T20:44:08.731Z,26.29
2023-06-18T20:46:41.087Z,26.30
2023-06-18T20:49:14.612Z,26.31
2023-06-18T20:51:46.459Z,26.31
2023-06-18T20:54:17.439Z,26.30
2023-06-18T20:56:48.541Z,26.29
2023-06-18T20:59:19.448Z,26.28
2023-06-18T21:01:51.579Z,26.28
2023-06-18T21:04:22.676Z,26.27
2023-06-18T21:06:53.552Z,26.25
2023-06-18T21:09:24.591Z,26.24
2023-06-18T21:11:56.110Z,26.23
2023-06-18T21:14:27.176Z,26.21
2023-06-18T21:17:00.624Z,26.19
2023-06-18T21:19:29.917Z,26.16
2023-06-18T21:22:00.989Z,26.13
2023-06-18T21:24:32.280Z,26.14
2023-06-18T21:27:03.318Z,26.12
2023-06-18T21:29:34.318Z,26.11
2023-06-18T21:32:06.022Z,26.10
2023-06-18T21:34:36.785Z,26.08
2023-06-18T21:37:08.100Z,26.08
2023-06-18T21:39:38.980Z,26.08
2023-06-18T21:42:10.517Z,26.08
2023-06-18T21:44:41.293Z,26.07
2023-06-18T21:47:12.252Z,26.05
2023-06-18T21:49:43.362Z,26.05
2023-06-18T21:52:14.139Z,26.03
2023-06-18T21:54:44.986Z,26.01
2023-06-18T21:57:15.797Z,25.99
2023-06-18T21:59:47.738Z,25.98
2023-06-18T22:02:18.799Z,25.97
2023-06-18T22:04:49.638Z,25.96
2023-06-18T22:07:20.796Z,25.94
2023-06-18T22:09:51.734Z,25.93
2023-06-18T22:12:22.971Z,25.91
2023-06-18T22:14:54.158Z,25.89
2023-06-18T22:17:24.908Z,25.88
2023-06-18T22:19:55.869Z,25.87
2023-06-18T22:22:26.749Z,25.85
2023-06-18T22:24:57.596Z,25.85
2023-06-18T22:27:29.385Z,25.84
2023-06-18T22:30:00.655Z,25.82
2023-06-18T22:32:31.484Z,25.80
2023-06-18T22:35:02.216Z,25.79
2023-06-18T22:37:32.953Z,25.80
2023-06-18T22:40:04.300Z,25.79
2023-06-18T22:42:35.017Z,25.77
2023-06-18T22:45:06.614Z,25.77
2023-06-18T22:47:37.438Z,25.76
2023-06-18T22:50:10.153Z,25.76
2023-06-18T22:52:41.122Z,25.75
2023-06-18T22:55:13.221Z,25.74
2023-06-18T22:57:46.242Z,25.73
2023-06-18T23:00:18.124Z,25.72
2023-06-18T23:02:49.092Z,25.71
2023-06-18T23:05:20.074Z,25.71
2023-06-18T23:07:51.997Z,25.70
2023-06-18T23:10:22.952Z,25.68
2023-06-18T23:12:53.976Z,25.67
2023-06-18T23:15:24.941Z,25.67
2023-06-18T23:17:55.761Z,25.66
2023-06-18T23:20:27.060Z,25.65
2023-06-18T23:22:57.911Z,25.63
2023-06-18T23:25:28.828Z,25.62
2023-06-18T23:27:59.611Z,25.61
2023-06-18T23:30:36.208Z,25.60
2023-06-18T23:33:07.665Z,25.58
2023-06-18T23:35:38.556Z,25.56
2023-06-18T23:38:12.378Z,25.55
2023-06-18T23:40:43.223Z,25.52
2023-06-18T23:43:13.936Z,25.50
2023-06-18T23:45:44.888Z,25.50
2023-06-18T23:48:15.618Z,25.49
2023-06-18T23:50:46.422Z,25.46
2023-06-18T23:53:17.427Z,25.45
2023-06-18T23:55:48.128Z,25.43
2023-06-18T23:58:19.080Z,25.41
